createdAt,value
2023-09-07T00:04:23.548Z,8.5
2023-09-07T00:14:37.510Z,8.4
2023-09-07T00:19:43.709Z,8.4
2023-09-07T00:24:51.627Z,8.4
2023-09-07T00:29:57.780Z,8.4
2023-09-07T00:35:05.725Z,8.4
2023-09-07T00:40:11.916Z,8.4
2023-09-07T00:45:18.091Z,8.4
2023-09-07T00:50:26.045Z,8.4
2023-09-07T00:55:34.500Z,8.4
2023-09-07T01:00:42.024Z,8.4
2023-09-07T01:05:48.162Z,8.4
2023-09-07T01:10:56.074Z,8.4
2023-09-07T01:16:04.259Z,8.4
2023-09-07T01:21:11.990Z,8.2
2023-09-07T01:26:19.906Z,8.2
2023-09-07T01:31:27.967Z,8.2
2023-09-07T01:36:35.844Z,8.3
2023-09-07T01:41:43.795Z,8.3
2023-09-07T01:51:59.719Z,8.3
2023-09-07T01:57:07.691Z,8.3
2023-09-07T02:02:13.894Z,8.2
2023-09-07T02:07:21.769Z,8.3
2023-09-07T02:12:27.975Z,8.3
2023-09-07T02:17:36.080Z,8.3
2023-09-07T02:22:43.891Z,8.3
2023-09-07T02:27:51.806Z,8.2
2023-09-07T02:32:59.806Z,8.2
2023-09-07T02:38:05.983Z,8.2
2023-09-07T02:43:12.128Z,8.2
2023-09-07T02:48:20.200Z,8.3
2023-09-07T02:53:26.207Z,8.2
2023-09-07T02:58:34.537Z,8.3
2023-09-07T03:03:42.226Z,8.2
2023-09-07T03:08:50.065Z,8.2
2023-09-07T03:13:58.093Z,8.2
2023-09-07T03:19:06.017Z,8.2
2023-09-07T03:24:13.939Z,8.1
2023-09-07T03:29:20.110Z,8.1
2023-09-07T03:34:28.071Z,8.1
2023-09-07T03:39:36.035Z,8.1
2023-09-07T03:49:50.109Z,8.1
2023-09-07T03:54:56.290Z,8.1
2023-09-07T04:00:04.251Z,8.1
2023-09-07T04:05:12.213Z,8.1
2023-09-07T04:10:20.181Z,8.1
2023-09-07T04:15:26.308Z,8.1
2023-09-07T04:20:34.248Z,8.1
2023-09-07T04:25:40.548Z,8
2023-09-07T04:30:48.410Z,8
2023-09-07T04:35:54.542Z,8
2023-09-07T04:41:02.550Z,8
2023-09-07T04:46:10.515Z,8
2023-09-07T04:51:18.451Z,8
2023-09-07T04:56:26.394Z,8
2023-09-07T05:01:34.339Z,8
2023-09-07T05:06:42.312Z,8
2023-09-07T05:11:50.220Z,8
2023-09-07T05:16:58.239Z,8
2023-09-07T05:22:06.152Z,8
2023-09-07T05:27:14.107Z,8
2023-09-07T05:32:22.037Z,8
2023-09-07T05:37:30.052Z,8
2023-09-07T05:42:37.982Z,7.8
2023-09-07T05:47:46.023Z,7.8
2023-09-07T05:52:53.887Z,7.8
2023-09-07T05:58:04.236Z,7.8
2023-09-07T06:08:17.750Z,7.7
2023-09-07T06:13:25.727Z,7.7
2023-09-07T06:18:32.157Z,7.7
2023-09-07T06:23:38.189Z,7.7
2023-09-07T06:28:46.053Z,7.6
2023-09-07T06:33:52.232Z,7.6
2023-09-07T06:39:00.135Z,7.6
2023-09-07T06:44:06.290Z,7.5
2023-09-07T06:49:14.286Z,7.6
2023-09-07T06:59:26.588Z,7.5
2023-09-07T07:04:34.661Z,7.5
2023-09-07T07:09:42.517Z,7.5
2023-09-07T07:14:50.453Z,7.5
2023-09-07T07:19:58.508Z,7.5
2023-09-07T07:25:06.388Z,7.5
2023-09-07T07:30:12.581Z,7.5
2023-09-07T07:35:20.484Z,7.5
2023-09-07T07:40:28.441Z,7.5
2023-09-07T07:45:34.610Z,7.5
2023-09-07T07:50:42.588Z,7.5
2023-09-07T07:55:50.492Z,7.5
2023-09-07T08:00:56.642Z,7.4
2023-09-07T08:06:02.880Z,7.6
2023-09-07T08:11:10.785Z,7.6
2023-09-07T08:16:19.022Z,7.6
2023-09-07T08:21:26.701Z,7.6
2023-09-07T08:26:34.627Z,7.4
2023-09-07T08:31:42.710Z,7.5
2023-09-07T08:36:50.535Z,7.5
2023-09-07T08:42:01.095Z,7.5
2023-09-07T08:47:06.477Z,7.5
2023-09-07T08:52:14.434Z,7.5
2023-09-07T08:57:22.350Z,7.4
2023-09-07T09:02:30.473Z,7.4
2023-09-07T09:07:38.271Z,7.4
2023-09-07T09:12:46.234Z,7.4
2023-09-07T09:17:52.494Z,7.4
2023-09-07T09:23:00.376Z,7.3
2023-09-07T09:28:08.371Z,7.3
2023-09-07T09:33:16.294Z,7.3
2023-09-07T09:38:24.219Z,7.2
2023-09-07T09:43:32.246Z,7.2
2023-09-07T09:48:40.230Z,7.2
2023-09-07T09:53:48.068Z,7.2
2023-09-07T09:58:56.123Z,7.1
2023-09-07T10:04:04.088Z,7.2
2023-09-07T10:09:12.010Z,7.1
2023-09-07T10:14:19.949Z,7.1
2023-09-07T10:19:27.870Z,7.2
2023-09-07T10:24:35.810Z,7.2
2023-09-07T10:29:41.981Z,7.4
2023-09-07T10:34:48.155Z,7.2
2023-09-07T10:39:56.124Z,7.4
2023-09-07T10:45:02.322Z,7.4
2023-09-07T10:50:10.219Z,7.5
2023-09-07T10:55:18.243Z,7.5
2023-09-07T11:00:26.119Z,7.5
2023-09-07T11:05:34.106Z,7.5
2023-09-07T11:10:41.997Z,7.5
2023-09-07T11:15:49.978Z,7.5
2023-09-07T11:20:56.139Z,7.7
2023-09-07T11:26:04.135Z,7.7
2023-09-07T11:31:10.266Z,7.7
2023-09-07T11:36:18.241Z,7.7
2023-09-07T11:41:24.445Z,7.8
2023-09-07T11:46:32.374Z,7.8
2023-09-07T11:51:38.609Z,7.8
2023-09-07T11:56:46.430Z,8
2023-09-07T12:01:52.680Z,8
2023-09-07T12:07:00.660Z,8
2023-09-07T12:12:06.731Z,8.1
2023-09-07T12:17:14.893Z,8.1
2023-09-07T12:22:22.627Z,8.1
2023-09-07T12:27:36.939Z,8.2
2023-09-07T12:32:36.787Z,8.2
2023-09-07T12:37:42.994Z,8.3
2023-09-07T12:42:49.219Z,8.2
2023-09-07T12:47:57.071Z,8.2
2023-09-07T12:53:03.321Z,8.2
2023-09-07T12:58:11.149Z,8.3
2023-09-07T13:03:19.226Z,8.3
2023-09-07T13:08:25.265Z,8.3
2023-09-07T13:13:33.481Z,8.5
2023-09-07T13:18:41.167Z,8.5
2023-09-07T13:23:49.171Z,8.5
2023-09-07T13:28:57.067Z,8.5
2023-09-07T13:34:05.082Z,8.5
2023-09-07T13:39:12.989Z,8.5
2023-09-07T13:44:20.960Z,8.5
2023-09-07T13:49:28.942Z,8.7
2023-09-07T13:54:36.865Z,8.8
2023-09-07T13:59:44.819Z,8.8
2023-09-07T14:04:52.745Z,9
2023-09-07T14:10:00.724Z,9
2023-09-07T14:15:08.669Z,9.1
2023-09-07T14:20:16.645Z,9.1
2023-09-07T14:25:24.570Z,9.1
2023-09-07T14:30:32.565Z,9.1
2023-09-07T14:35:40.524Z,9.1
2023-09-07T14:40:48.459Z,9.1
2023-09-07T14:45:56.532Z,9.1
2023-09-07T14:51:04.336Z,9.3
2023-09-07T14:56:10.531Z,9.3
2023-09-07T15:01:16.938Z,9.3
2023-09-07T15:11:30.808Z,9.3
2023-09-07T15:16:38.836Z,9.4
2023-09-07T15:21:46.695Z,9.6
2023-09-07T15:26:52.890Z,9.4
2023-09-07T15:31:59.059Z,9.4
2023-09-07T15:37:06.984Z,9.4
2023-09-07T15:42:14.932Z,9.4
2023-09-07T15:47:21.134Z,9.5
2023-09-07T15:52:29.044Z,9.5
2023-09-07T15:57:36.988Z,9.5
2023-09-07T16:02:43.290Z,9.6
2023-09-07T16:07:49.338Z,9.6
2023-09-07T16:12:55.494Z,9.7
2023-09-07T16:18:01.741Z,9.6
2023-09-07T16:23:09.718Z,9.9
2023-09-07T16:28:17.559Z,9.9
2023-09-07T16:33:25.585Z,9.9
2023-09-07T16:38:32.020Z,9.9
2023-09-07T16:43:39.614Z,9.9
2023-09-07T16:48:45.896Z,9.7
2023-09-07T16:53:53.783Z,9.7
2023-09-07T17:04:09.697Z,9.6
2023-09-07T17:09:17.600Z,9.7
2023-09-07T17:14:25.608Z,9.6
2023-09-07T17:19:33.495Z,9.5
2023-09-07T17:24:41.521Z,9.5
2023-09-07T17:29:49.413Z,9.5
2023-09-07T17:34:57.349Z,9.5
2023-09-07T17:40:05.298Z,9.5
2023-09-07T17:50:21.261Z,9.5
2023-09-07T17:55:29.199Z,9.5
2023-09-07T18:00:37.166Z,9.5
2023-09-07T18:05:45.094Z,9.6
2023-09-07T18:10:53.020Z,9.5
2023-09-07T18:16:01.003Z,9.5
2023-09-07T18:21:08.988Z,9.6
2023-09-07T18:26:16.891Z,9.6
2023-09-07T18:31:24.920Z,9.6
2023-09-07T18:41:40.768Z,9.6
2023-09-07T18:46:48.840Z,9.6
2023-09-07T18:51:56.663Z,9.6
2023-09-07T18:57:04.647Z,9.6
2023-09-07T19:02:10.784Z,9.6
2023-09-07T19:07:16.961Z,9.5
2023-09-07T19:12:24.911Z,9.5
2023-09-07T19:17:31.183Z,9.5
2023-09-07T19:22:39.042Z,9.4
2023-09-07T19:27:46.989Z,9.4
2023-09-07T19:32:53.164Z,9.4
2023-09-07T19:37:59.304Z,9.4
2023-09-07T19:43:07.252Z,9.4
2023-09-07T19:48:13.508Z,9.3
2023-09-07T19:53:19.603Z,9.3
2023-09-07T19:58:25.782Z,9.3
2023-09-07T20:03:32.061Z,9.3
2023-09-07T20:08:39.891Z,9.3
2023-09-07T20:13:46.079Z,9.3
2023-09-07T20:18:52.241Z,9.3
2023-09-07T20:24:00.185Z,9.3
2023-09-07T20:29:08.112Z,9.3
2023-09-07T20:34:16.093Z,9.3
2023-09-07T20:39:24.060Z,9.3
2023-09-07T20:44:31.997Z,9.3
2023-09-07T20:49:39.924Z,9.3
2023-09-07T20:59:54.100Z,9.3
2023-09-07T21:05:00.200Z,9.2
2023-09-07T21:10:08.184Z,9.2
2023-09-07T21:15:16.136Z,9.2
2023-09-07T21:20:24.094Z,9.2
2023-09-07T21:25:32.048Z,9.2
2023-09-07T21:30:40.028Z,9.2
2023-09-07T21:35:47.925Z,9.2
2023-09-07T21:40:55.890Z,9.2
2023-09-07T21:46:03.890Z,9.2
2023-09-07T21:51:11.809Z,9.1
2023-09-07T21:56:19.819Z,9.1
2023-09-07T22:01:27.702Z,9
2023-09-07T22:11:43.625Z,9
2023-09-07T22:16:51.647Z,9
2023-09-07T22:21:59.518Z,9
2023-09-07T22:27:07.551Z,9
2023-09-07T22:32:15.444Z,9
2023-09-07T22:37:23.381Z,9
2023-09-07T22:47:39.329Z,9
2023-09-07T22:52:47.272Z,9
2023-09-07T22:57:55.207Z,9
2023-09-07T23:03:03.319Z,8.9
2023-09-07T23:08:11.153Z,8.8
2023-09-07T23:13:19.089Z,8.8
2023-09-07T23:23:34.986Z,8.8
2023-09-07T23:28:41.147Z,8.8
2023-09-07T23:33:47.394Z,8.8
2023-09-07T23:38:55.287Z,8.8
2023-09-07T23:44:03.241Z,8.8
2023-09-07T23:49:09.420Z,8.8
2023-09-07T23:54:15.549Z,8.8
2023-09-07T23:59:23.518Z,8.8
